createdAt,value
2022-11-20T00:01:29.147Z,1.06
2022-11-20T00:03:58.658Z,1.03
2022-11-20T00:06:27.382Z,1.01
2022-11-20T00:08:59.880Z,0.99
2022-11-20T00:11:31.429Z,1.01
2022-11-20T00:14:02.719Z,1.00
2022-11-20T00:16:34.940Z,0.96
2022-11-20T00:19:02.935Z,0.94
2022-11-20T00:21:31.228Z,0.85
2022-11-20T00:24:01.866Z,0.84
2022-11-20T00:26:32.606Z,0.89
2022-11-20T00:29:03.772Z,0.83
2022-11-20T00:31:34.068Z,0.80
2022-11-20T00:34:01.703Z,0.84
2022-11-20T00:36:31.345Z,0.84
2022-11-20T00:39:00.158Z,0.88
2022-11-20T00:41:31.988Z,0.86
2022-11-20T00:43:59.583Z,0.84
2022-11-20T00:46:30.349Z,0.89
2022-11-20T00:48:58.536Z,0.89
2022-11-20T00:51:29.708Z,0.90
2022-11-20T00:53:58.702Z,0.90
2022-11-20T00:56:26.323Z,0.85
2022-11-20T00:58:53.953Z,0.88
2022-11-20T01:01:25.272Z,0.86
2022-11-20T01:03:57.207Z,0.88
2022-11-20T01:06:28.169Z,0.86
2022-11-20T01:08:59.985Z,0.86
2022-11-20T01:11:30.195Z,0.85
2022-11-20T01:14:01.657Z,0.82
2022-11-20T01:16:35.406Z,0.75
2022-11-20T01:19:06.050Z,0.76
2022-11-20T01:21:36.421Z,0.75
2022-11-20T01:24:05.978Z,0.77
2022-11-20T01:26:35.999Z,0.80
2022-11-20T01:29:09.719Z,0.79
2022-11-20T01:31:39.720Z,0.80
2022-11-20T01:34:17.756Z,0.80
2022-11-20T01:36:45.970Z,0.80
2022-11-20T01:39:20.963Z,0.82
2022-11-20T01:42:10.087Z,0.79
2022-11-20T01:44:58.996Z,0.83
2022-11-20T01:47:32.351Z,0.87
2022-11-20T01:50:16.803Z,0.89
2022-11-20T01:53:16.009Z,0.87
2022-11-20T01:55:49.041Z,0.97
2022-11-20T01:58:20.804Z,0.97
2022-11-20T02:00:48.481Z,0.98
2022-11-20T02:03:19.323Z,0.96
2022-11-20T02:05:53.996Z,1.02
2022-11-20T02:08:22.227Z,1.00
2022-11-20T02:10:49.864Z,0.99
2022-11-20T02:13:37.749Z,1.03
2022-11-20T02:16:06.064Z,1.09
2022-11-20T02:18:34.060Z,1.10
2022-11-20T02:21:11.089Z,1.10
2022-11-20T02:24:04.525Z,1.08
2022-11-20T02:26:35.847Z,1.10
2022-11-20T02:29:05.925Z,1.12
2022-11-20T02:31:43.355Z,1.15
2022-11-20T02:34:11.268Z,1.17
2022-11-20T02:36:41.393Z,1.16
2022-11-20T02:39:13.571Z,1.16
2022-11-20T02:41:43.729Z,1.17
2022-11-20T02:44:13.932Z,1.23
2022-11-20T02:46:41.444Z,1.22
2022-11-20T02:49:09.068Z,1.19
2022-11-20T02:51:36.649Z,1.24
2022-11-20T02:54:06.865Z,1.22
2022-11-20T02:56:34.650Z,1.19
2022-11-20T02:59:03.144Z,1.22
2022-11-20T03:01:30.739Z,1.04
2022-11-20T03:03:58.315Z,1.23
2022-11-20T03:06:25.920Z,1.27
2022-11-20T03:08:53.550Z,1.24
2022-11-20T03:11:21.336Z,1.27
2022-11-20T03:13:51.198Z,1.24
2022-11-20T03:16:22.050Z,1.21
2022-11-20T03:18:51.761Z,1.19
2022-11-20T03:21:20.640Z,1.20
2022-11-20T03:23:48.205Z,1.22
2022-11-20T03:26:21.438Z,1.24
2022-11-20T03:28:56.971Z,1.23
2022-11-20T03:31:30.474Z,1.26
2022-11-20T03:33:59.715Z,1.29
2022-11-20T03:36:33.700Z,1.27
2022-11-20T03:39:01.680Z,1.29
2022-11-20T03:41:31.817Z,1.30
2022-11-20T03:44:04.842Z,1.28
2022-11-20T03:46:32.989Z,1.27
2022-11-20T03:49:00.998Z,1.32
2022-11-20T03:51:35.841Z,1.35
2022-11-20T03:54:09.405Z,1.33
2022-11-20T03:56:40.093Z,1.34
2022-11-20T03:59:11.995Z,1.32
2022-11-20T04:01:39.563Z,1.33
2022-11-20T04:04:07.666Z,1.34
2022-11-20T04:06:40.631Z,1.34
2022-11-20T04:09:08.555Z,1.27
2022-11-20T04:11:39.071Z,1.31
2022-11-20T04:14:08.659Z,1.30
2022-11-20T04:16:37.973Z,1.31
2022-11-20T04:19:08.308Z,1.38
2022-11-20T04:21:38.336Z,1.31
2022-11-20T04:24:06.505Z,1.32
2022-11-20T04:26:34.495Z,1.36
2022-11-20T04:29:05.200Z,1.36
2022-11-20T04:31:35.791Z,1.38
2022-11-20T04:34:06.100Z,1.39
2022-11-20T04:36:35.787Z,1.41
2022-11-20T04:39:08.352Z,1.44
2022-11-20T04:41:38.401Z,1.49
2022-11-20T04:44:08.112Z,1.50
2022-11-20T04:46:41.730Z,1.51
2022-11-20T04:49:09.767Z,1.50
2022-11-20T04:51:37.489Z,1.48
2022-11-20T04:54:07.451Z,1.54
2022-11-20T04:56:37.428Z,1.53
2022-11-20T04:59:05.082Z,1.55
2022-11-20T05:01:33.696Z,1.54
2022-11-20T05:04:01.717Z,1.58
2022-11-20T05:06:29.256Z,1.50
2022-11-20T05:08:56.844Z,1.54
2022-11-20T05:11:25.859Z,1.55
2022-11-20T05:13:57.012Z,1.58
2022-11-20T05:16:26.099Z,1.56
2022-11-20T05:18:55.519Z,1.61
2022-11-20T05:21:23.866Z,1.62
2022-11-20T05:23:53.837Z,1.65
2022-11-20T05:26:23.632Z,1.65
2022-11-20T05:28:53.169Z,1.64
2022-11-20T05:31:27.992Z,1.66
2022-11-20T05:33:57.536Z,1.65
2022-11-20T05:36:26.714Z,1.55
2022-11-20T05:39:01.260Z,1.61
2022-11-20T05:41:29.739Z,1.66
2022-11-20T05:43:58.415Z,1.68
2022-11-20T05:46:28.553Z,1.69
2022-11-20T05:48:59.367Z,1.69
2022-11-20T05:51:28.234Z,1.73
2022-11-20T05:53:58.414Z,1.74
2022-11-20T05:56:26.108Z,1.79
2022-11-20T05:58:53.628Z,1.81
2022-11-20T06:01:27.072Z,1.83
2022-11-20T06:03:57.516Z,1.83
2022-11-20T06:06:27.543Z,1.84
2022-11-20T06:09:21.768Z,1.86
2022-11-20T06:11:49.613Z,1.89
2022-11-20T06:14:17.165Z,1.83
2022-11-20T06:16:47.249Z,1.86
2022-11-20T06:19:14.849Z,1.89
2022-11-20T06:21:45.048Z,1.90
2022-11-20T06:24:13.439Z,1.90
2022-11-20T06:26:40.988Z,1.93
2022-11-20T06:29:08.813Z,1.95
2022-11-20T06:31:38.739Z,1.97
2022-11-20T06:34:07.530Z,2.02
2022-11-20T06:36:35.555Z,2.03
2022-11-20T06:39:03.404Z,2.09
2022-11-20T06:41:31.978Z,2.11
2022-11-20T06:43:59.634Z,2.14
2022-11-20T06:46:27.212Z,2.25
2022-11-20T06:48:54.790Z,2.32
2022-11-20T06:51:22.424Z,2.27
2022-11-20T06:53:50.831Z,2.37
2022-11-20T06:56:18.575Z,2.37
2022-11-20T06:58:47.245Z,2.44
2022-11-20T07:01:17.083Z,2.52
2022-11-20T07:03:45.199Z,2.60
2022-11-20T07:06:13.120Z,2.62
2022-11-20T07:08:40.768Z,2.64
2022-11-20T07:11:09.565Z,2.71
2022-11-20T07:13:39.721Z,2.72
2022-11-20T07:16:09.811Z,2.75
2022-11-20T07:18:37.671Z,2.75
2022-11-20T07:21:07.465Z,2.70
2022-11-20T07:23:35.384Z,2.70
2022-11-20T07:26:11.755Z,2.71
2022-11-20T07:28:41.038Z,2.75
2022-11-20T07:31:15.968Z,2.79
2022-11-20T07:33:46.212Z,2.85
2022-11-20T07:36:13.738Z,2.87
2022-11-20T07:38:41.350Z,2.89
2022-11-20T07:41:11.517Z,2.92
2022-11-20T07:43:41.419Z,2.93
2022-11-20T07:46:11.612Z,2.95
2022-11-20T07:48:39.464Z,2.98
2022-11-20T07:51:08.295Z,3.03
2022-11-20T07:53:35.849Z,3.03
2022-11-20T07:56:04.675Z,3.06
2022-11-20T07:58:35.553Z,3.06
2022-11-20T08:01:09.822Z,3.06
2022-11-20T08:03:39.969Z,3.06
2022-11-20T08:06:07.922Z,3.06
2022-11-20T08:08:38.893Z,3.06
2022-11-20T08:11:32.290Z,3.14
2022-11-20T08:14:14.877Z,3.26
2022-11-20T08:16:46.996Z,3.25
2022-11-20T08:19:16.557Z,3.34
2022-11-20T08:21:44.130Z,3.15
2022-11-20T08:24:12.414Z,3.30
2022-11-20T08:26:41.142Z,3.35
2022-11-20T08:29:08.900Z,3.40
2022-11-20T08:31:36.784Z,3.46
2022-11-20T08:34:08.921Z,3.59
2022-11-20T08:36:37.559Z,3.72
2022-11-20T08:39:05.596Z,3.75
2022-11-20T08:41:34.329Z,3.79
2022-11-20T08:44:04.232Z,3.82
2022-11-20T08:46:40.359Z,3.63
2022-11-20T08:49:10.423Z,3.59
2022-11-20T08:51:38.784Z,3.61
2022-11-20T08:54:07.300Z,3.74
2022-11-20T08:56:35.327Z,3.87
2022-11-20T08:59:26.870Z,3.97
2022-11-20T09:01:51.178Z,3.99
2022-11-20T09:04:20.931Z,4.07
2022-11-20T09:06:51.850Z,4.08
2022-11-20T09:09:20.198Z,4.02
2022-11-20T09:11:48.079Z,4.05
2022-11-20T09:14:19.089Z,3.97
2022-11-20T09:16:47.679Z,3.97
2022-11-20T09:22:05.665Z,4.01
2022-11-20T09:24:34.309Z,3.97
2022-11-20T09:27:05.953Z,3.98
2022-11-20T09:29:33.815Z,4.01
2022-11-20T09:32:01.543Z,3.95
2022-11-20T09:34:31.344Z,4.16
2022-11-20T09:37:01.546Z,4.28
2022-11-20T09:39:33.439Z,4.27
2022-11-20T09:42:00.994Z,4.37
2022-11-20T09:44:28.626Z,4.40
2022-11-20T09:47:05.254Z,4.46
2022-11-20T09:49:47.808Z,4.45
2022-11-20T09:52:54.177Z,4.49
2022-11-20T09:55:22.547Z,4.43
2022-11-20T09:57:53.847Z,4.50
2022-11-20T10:00:22.257Z,4.53
2022-11-20T10:03:26.743Z,4.55
2022-11-20T10:05:56.938Z,4.77
2022-11-20T10:08:34.626Z,4.90
2022-11-20T10:11:08.208Z,4.97
2022-11-20T10:13:45.198Z,5.14
2022-11-20T10:16:48.618Z,4.98
2022-11-20T10:20:01.098Z,5.07
2022-11-20T10:22:37.628Z,5.28
2022-11-20T10:25:15.069Z,5.62
2022-11-20T10:28:01.316Z,6.27
2022-11-20T10:30:31.451Z,6.66
2022-11-20T10:33:21.560Z,6.80
2022-11-20T10:36:01.503Z,6.87
2022-11-20T10:38:59.053Z,7.11
2022-11-20T10:41:35.902Z,7.24
2022-11-20T10:44:11.526Z,7.17
2022-11-20T10:46:46.903Z,7.06
2022-11-20T10:49:21.207Z,7.11
2022-11-20T10:52:19.435Z,7.18
2022-11-20T10:54:56.692Z,7.08
2022-11-20T10:57:54.011Z,7.13
2022-11-20T11:00:21.965Z,7.47
2022-11-20T11:02:50.725Z,7.31
2022-11-20T11:05:36.799Z,7.48
2022-11-20T11:08:07.258Z,7.64
2022-11-20T11:10:47.175Z,7.25
2022-11-20T11:13:25.130Z,7.12
2022-11-20T11:15:56.739Z,7.11
2022-11-20T11:18:32.882Z,7.03
2022-11-20T11:21:03.905Z,6.89
2022-11-20T11:23:34.172Z,6.76
2022-11-20T11:26:03.976Z,6.80
2022-11-20T11:28:31.831Z,6.71
2022-11-20T11:30:59.462Z,6.78
2022-11-20T11:33:29.611Z,6.86
2022-11-20T11:36:18.560Z,6.92
2022-11-20T11:38:46.516Z,7.11
2022-11-20T11:41:24.840Z,7.41
2022-11-20T11:44:17.804Z,7.40
2022-11-20T11:46:56.393Z,7.38
2022-11-20T11:49:24.852Z,7.24
2022-11-20T11:52:17.320Z,7.19
2022-11-20T11:54:52.673Z,7.17
2022-11-20T11:57:39.634Z,7.25
2022-11-20T12:00:17.553Z,7.34
2022-11-20T12:02:48.835Z,7.46
2022-11-20T12:05:34.128Z,7.53
2022-11-20T12:08:12.302Z,7.51
2022-11-20T12:11:01.646Z,7.60
2022-11-20T12:13:32.255Z,7.79
2022-11-20T12:16:00.504Z,7.87
2022-11-20T12:18:29.305Z,7.90
2022-11-20T12:21:12.009Z,7.94
2022-11-20T12:24:24.650Z,7.71
2022-11-20T12:27:27.471Z,7.63
2022-11-20T12:30:13.133Z,7.48
2022-11-20T12:32:49.831Z,7.22
2022-11-20T12:35:35.813Z,7.28
2022-11-20T12:38:40.569Z,7.28
2022-11-20T12:41:40.609Z,7.22
2022-11-20T12:45:00.085Z,7.08
2022-11-20T12:47:39.491Z,6.99
2022-11-20T12:51:00.166Z,6.96
2022-11-20T12:54:00.487Z,6.85
2022-11-20T12:56:52.870Z,6.83
2022-11-20T12:59:38.466Z,6.78
2022-11-20T13:02:42.920Z,6.83
2022-11-20T13:05:19.953Z,6.90
2022-11-20T13:07:49.322Z,6.88
2022-11-20T13:10:33.161Z,6.83
2022-11-20T13:13:13.874Z,6.85
2022-11-20T13:16:00.690Z,6.86
2022-11-20T13:18:29.209Z,6.83
2022-11-20T13:20:56.856Z,6.87
2022-11-20T13:23:30.979Z,6.86
2022-11-20T13:26:17.530Z,6.90
2022-11-20T13:28:48.427Z,6.94
2022-11-20T13:31:33.497Z,6.83
2022-11-20T13:34:02.899Z,6.79
2022-11-20T13:36:33.361Z,6.76
2022-11-20T13:39:01.682Z,6.67
2022-11-20T13:41:40.999Z,6.65
2022-11-20T13:44:16.480Z,6.58
2022-11-20T13:46:47.220Z,6.48
2022-11-20T13:49:45.226Z,6.31
2022-11-20T13:52:41.051Z,6.22
2022-11-20T13:55:17.423Z,6.11
2022-11-20T13:58:03.876Z,6.02
2022-11-20T14:00:31.668Z,5.98
2022-11-20T14:03:08.412Z,5.87
2022-11-20T14:05:40.571Z,5.78
2022-11-20T14:08:15.315Z,5.71
2022-11-20T14:10:45.640Z,5.64
2022-11-20T14:13:20.594Z,5.52
2022-11-20T14:15:48.407Z,5.46
2022-11-20T14:18:24.018Z,5.40
2022-11-20T14:20:51.617Z,5.33
2022-11-20T14:23:30.518Z,5.28
2022-11-20T14:25:59.004Z,5.19
2022-11-20T14:28:29.937Z,5.13
2022-11-20T14:30:59.099Z,5.11
2022-11-20T14:33:28.964Z,5.06
2022-11-20T14:35:59.624Z,5.03
2022-11-20T14:38:29.462Z,4.98
2022-11-20T14:41:08.268Z,4.91
2022-11-20T14:43:37.000Z,4.86
2022-11-20T14:46:10.145Z,4.85
2022-11-20T14:48:45.395Z,4.83
2022-11-20T14:51:14.076Z,4.77
2022-11-20T14:53:43.758Z,4.75
2022-11-20T14:56:11.330Z,4.71
2022-11-20T14:58:41.460Z,4.67
2022-11-20T15:01:09.718Z,4.66
2022-11-20T15:03:42.672Z,4.58
2022-11-20T15:06:14.054Z,4.49
2022-11-20T15:08:52.973Z,4.36
2022-11-20T15:11:30.774Z,4.27
2022-11-20T15:14:00.592Z,4.17
2022-11-20T15:16:28.916Z,4.08
2022-11-20T15:18:58.612Z,3.96
2022-11-20T15:21:26.432Z,3.86
2022-11-20T15:23:54.692Z,3.66
2022-11-20T15:26:29.939Z,3.61
2022-11-20T15:28:57.646Z,3.51
2022-11-20T15:31:25.791Z,3.34
2022-11-20T15:33:53.422Z,3.28
2022-11-20T15:36:21.026Z,3.19
2022-11-20T15:38:53.582Z,3.15
2022-11-20T15:41:21.233Z,3.04
2022-11-20T15:43:49.207Z,2.99
2022-11-20T15:46:23.779Z,2.91
2022-11-20T15:48:56.536Z,2.83
2022-11-20T15:51:38.534Z,2.77
2022-11-20T15:54:15.199Z,2.66
2022-11-20T15:56:43.747Z,2.58
2022-11-20T15:59:13.233Z,2.50
2022-11-20T16:01:44.018Z,2.41
2022-11-20T16:04:17.496Z,2.35
2022-11-20T16:06:45.368Z,2.28
2022-11-20T16:09:13.056Z,2.25
2022-11-20T16:11:40.810Z,2.05
2022-11-20T16:14:26.268Z,2.13
2022-11-20T16:16:54.391Z,2.14
2022-11-20T16:19:22.036Z,2.08
2022-11-20T16:21:50.004Z,2.12
2022-11-20T16:24:18.146Z,2.13
2022-11-20T16:26:45.680Z,2.17
2022-11-20T16:29:15.917Z,2.20
2022-11-20T16:31:43.512Z,2.20
2022-11-20T16:34:12.517Z,2.20
2022-11-20T16:36:45.883Z,2.24
2022-11-20T16:39:21.961Z,2.24
2022-11-20T16:41:51.127Z,2.26
2022-11-20T16:44:18.713Z,2.27
2022-11-20T16:46:46.359Z,2.27
2022-11-20T16:49:15.786Z,2.26
2022-11-20T16:51:43.667Z,2.24
2022-11-20T16:54:17.894Z,2.26
2022-11-20T16:56:52.033Z,2.16
2022-11-20T16:59:22.035Z,2.10
2022-11-20T17:01:53.058Z,2.07
2022-11-20T17:04:21.122Z,1.98
2022-11-20T17:06:49.203Z,1.87
2022-11-20T17:09:19.428Z,1.80
2022-11-20T17:11:47.250Z,1.67
2022-11-20T17:14:17.365Z,1.65
2022-11-20T17:16:45.300Z,1.58
2022-11-20T17:19:14.651Z,1.47
2022-11-20T17:21:47.355Z,1.39
2022-11-20T17:24:16.274Z,1.33
2022-11-20T17:26:45.584Z,1.25
2022-11-20T17:29:15.972Z,1.19
2022-11-20T17:31:48.647Z,1.13
2022-11-20T17:34:19.697Z,1.14
2022-11-20T17:36:49.926Z,1.09
2022-11-20T17:39:20.877Z,1.03
2022-11-20T17:42:08.536Z,0.99
2022-11-20T17:44:38.588Z,0.98
2022-11-20T17:47:06.152Z,0.95
2022-11-20T17:49:35.843Z,0.91
2022-11-20T17:52:03.952Z,0.86
2022-11-20T17:54:35.064Z,0.76
2022-11-20T17:57:19.856Z,0.81
2022-11-20T17:59:47.441Z,0.83
2022-11-20T18:02:15.119Z,0.84
2022-11-20T18:04:42.886Z,0.88
2022-11-20T18:07:12.052Z,0.88
2022-11-20T18:09:39.653Z,0.92
2022-11-20T18:12:07.503Z,0.89
2022-11-20T18:14:36.479Z,1.08
2022-11-20T18:17:17.833Z,1.04
2022-11-20T18:20:14.068Z,0.94
2022-11-20T18:22:38.457Z,0.89
2022-11-20T18:25:06.774Z,0.81
2022-11-20T18:27:34.334Z,0.73
2022-11-20T18:30:01.961Z,0.66
2022-11-20T18:32:29.577Z,0.66
2022-11-20T18:34:57.600Z,0.61
2022-11-20T18:37:25.252Z,0.33
2022-11-20T18:39:56.170Z,0.43
2022-11-20T18:42:40.993Z,0.44
2022-11-20T18:45:09.064Z,0.42
2022-11-20T18:47:40.234Z,0.42
2022-11-20T18:50:09.616Z,0.46
2022-11-20T18:52:44.657Z,0.49
2022-11-20T18:55:15.008Z,0.47
2022-11-20T18:57:42.580Z,0.41
2022-11-20T19:00:12.079Z,0.38
2022-11-20T19:02:42.689Z,0.33
2022-11-20T19:05:12.658Z,0.24
2022-11-20T19:07:43.283Z,0.26
2022-11-20T19:10:20.382Z,0.23
2022-11-20T19:12:48.110Z,0.17
2022-11-20T19:15:18.392Z,0.21
2022-11-20T19:17:46.005Z,0.22
2022-11-20T19:20:22.907Z,0.13
2022-11-20T19:22:55.847Z,0.13
2022-11-20T19:25:26.069Z,0.08
2022-11-20T19:27:54.696Z,0.12
2022-11-20T19:30:22.306Z,0.10
2022-11-20T19:32:49.871Z,0.13
2022-11-20T19:35:20.011Z,0.13
2022-11-20T19:37:47.577Z,0.18
2022-11-20T19:40:15.119Z,0.02
2022-11-20T19:42:42.678Z,0.13
2022-11-20T19:45:11.043Z,0.16
2022-11-20T19:48:07.068Z,0.14
2022-11-20T19:50:26.280Z,0.18
2022-11-20T19:52:59.019Z,0.20
2022-11-20T19:55:29.740Z,0.18
2022-11-20T19:57:57.381Z,0.19
2022-11-20T20:00:32.298Z,0.15
2022-11-20T20:03:02.763Z,0.15
2022-11-20T20:05:30.364Z,0.08
2022-11-20T20:07:57.960Z,0.01
2022-11-20T20:10:25.658Z,0.02
2022-11-20T20:12:53.871Z,-0.05
2022-11-20T20:15:23.993Z,-0.12
2022-11-20T20:17:59.697Z,-0.08
2022-11-20T20:20:27.500Z,-0.07
2022-11-20T20:22:57.829Z,-0.09
2022-11-20T20:25:25.517Z,-0.14
2022-11-20T20:27:53.084Z,-0.07
2022-11-20T20:30:20.727Z,-0.11
2022-11-20T20:32:53.269Z,-0.05
2022-11-20T20:35:25.142Z,-0.08
2022-11-20T20:37:57.647Z,-0.11
2022-11-20T20:40:28.134Z,-0.08
2022-11-20T20:42:58.020Z,0.04
2022-11-20T20:45:25.725Z,-0.03
2022-11-20T20:47:53.429Z,-0.03
2022-11-20T20:50:21.026Z,-0.04
2022-11-20T20:52:48.849Z,-0.12
2022-11-20T20:55:19.013Z,-0.09
2022-11-20T20:57:46.904Z,-0.13
2022-11-20T21:00:16.105Z,-0.13
2022-11-20T21:02:43.651Z,-0.18
2022-11-20T21:05:11.244Z,-0.14
2022-11-20T21:07:59.559Z,-0.16
2022-11-20T21:10:31.235Z,-0.16
2022-11-20T21:13:01.147Z,-0.18
2022-11-20T21:15:28.701Z,-0.20
2022-11-20T21:17:57.821Z,-0.14
2022-11-20T21:20:49.398Z,-0.05
2022-11-20T21:23:16.988Z,-0.06
2022-11-20T21:25:44.580Z,-0.02
2022-11-20T21:28:18.060Z,-0.03
2022-11-20T21:30:48.441Z,-0.05
2022-11-20T21:33:16.253Z,-0.10
2022-11-20T21:35:43.943Z,-0.11
2022-11-20T21:38:11.532Z,-0.01
2022-11-20T21:40:39.111Z,0.00
2022-11-20T21:43:06.663Z,-0.02
2022-11-20T21:45:34.228Z,-0.07
2022-11-20T21:48:01.741Z,-0.11
2022-11-20T21:50:30.030Z,-0.15
2022-11-20T21:53:02.043Z,-0.19
2022-11-20T21:55:32.896Z,-0.22
2022-11-20T21:58:04.863Z,-0.27
2022-11-20T22:00:32.415Z,-0.31
2022-11-20T22:03:00.693Z,-0.30
2022-11-20T22:05:28.259Z,-0.26
2022-11-20T22:07:56.028Z,-0.25
2022-11-20T22:10:30.262Z,-0.22
2022-11-20T22:13:14.039Z,-0.22
2022-11-20T22:15:59.903Z,-0.23
2022-11-20T22:18:28.582Z,-0.25
2022-11-20T22:20:56.234Z,-0.31
2022-11-20T22:23:23.773Z,-0.33
2022-11-20T22:25:51.291Z,-0.38
2022-11-20T22:28:18.996Z,-0.41
2022-11-20T22:30:46.553Z,-0.46
2022-11-20T22:33:16.504Z,-0.50
2022-11-20T22:35:44.000Z,-0.53
2022-11-20T22:38:14.006Z,-0.57
2022-11-20T22:40:43.766Z,-0.53
2022-11-20T22:43:13.492Z,-0.51
2022-11-20T22:45:42.945Z,-0.50
2022-11-20T22:48:10.617Z,-0.50
2022-11-20T22:50:38.190Z,-0.52
2022-11-20T22:53:05.747Z,-0.53
2022-11-20T22:55:34.892Z,-0.52
2022-11-20T22:58:04.762Z,-0.56
2022-11-20T23:00:32.290Z,-0.59
2022-11-20T23:02:59.954Z,-0.62
2022-11-20T23:05:34.146Z,-0.59
2022-11-20T23:08:01.676Z,-0.59
2022-11-20T23:10:29.189Z,-0.58
2022-11-20T23:12:56.797Z,-0.64
2022-11-20T23:15:24.424Z,-0.63
2022-11-20T23:17:56.673Z,-0.60
2022-11-20T23:20:24.224Z,-0.58
2022-11-20T23:22:54.409Z,-0.58
2022-11-20T23:25:21.960Z,-0.59
2022-11-20T23:27:49.543Z,-0.60
2022-11-20T23:30:19.651Z,-0.62
2022-11-20T23:32:47.225Z,-0.62
2022-11-20T23:35:15.563Z,-0.60
2022-11-20T23:37:43.089Z,-0.62
2022-11-20T23:40:11.081Z,-0.60
2022-11-20T23:42:58.629Z,-0.64
2022-11-20T23:45:26.190Z,-0.68
2022-11-20T23:47:53.745Z,-0.72
2022-11-20T23:50:22.592Z,-0.74
2022-11-20T23:52:50.159Z,-0.81
2022-11-20T23:55:21.024Z,-0.80
2022-11-20T23:57:50.756Z,-0.84
